Time;durP1;ratioP1;P1;durP2;ratioP2;P2;SDS_P1;SDS_P2;PMS_P1;PMS_P2;Temp;Humidity;BMP_temperature;BMP_pressure;BME280_temperature;BME280_humidity;BME280_pressure;Samples;Min_cycle;Max_cycle;Signal;HPM_P1;HPM_P2
2023/09/05 05:17:33;;;;;;;1.08;1.08;;;11.50;99.90;;;;;;4915459;29;20244;-72
2023/09/05 05:20:00;;;;;;;1.08;1.08;;;11.60;99.90;;;;;;4917081;29;20553;-75
2023/09/05 05:22:27;;;;;;;1.50;1.40;;;11.90;99.90;;;;;;4917820;29;20210;-73
2023/09/05 05:24:54;;;;;;;1.00;1.00;;;12.30;99.90;;;;;;4918981;29;20205;-73
2023/09/05 05:27:20;;;;;;;1.00;1.00;;;12.90;99.90;;;;;;4936561;29;20221;-72
2023/09/05 05:29:47;;;;;;;1.02;1.02;;;13.40;99.90;;;;;;4936790;29;20205;-72
2023/09/05 05:32:14;;;;;;;1.33;1.33;;;13.70;99.90;;;;;;4936851;29;20208;-72
2023/09/05 05:34:42;;;;;;;1.50;1.45;;;13.90;99.90;;;;;;4936066;29;20605;-72
2023/09/05 05:37:09;;;;;;;1.48;1.48;;;14.20;99.90;;;;;;4937548;29;20371;-72
2023/09/05 05:39:36;;;;;;;1.92;1.83;;;14.50;99.90;;;;;;4940321;29;20208;-72
2023/09/05 05:42:03;;;;;;;2.20;2.10;;;14.90;99.90;;;;;;4940261;29;20213;-72
2023/09/05 05:44:30;;;;;;;2.40;2.22;;;15.40;99.90;;;;;;4939853;29;20209;-72
2023/09/05 05:46:58;;;;;;;3.00;2.80;;;15.80;99.90;;;;;;4939951;29;20229;-72
2023/09/05 05:49:29;;;;;;;2.42;2.28;;;16.20;99.90;;;;;;4939730;29;20264;-72
2023/09/05 05:51:57;;;;;;;2.80;2.60;;;16.70;99.90;;;;;;4939911;29;20271;-72
2023/09/05 05:54:24;;;;;;;2.30;2.20;;;17.40;99.90;;;;;;4939669;29;20201;-72
2023/09/05 05:56:51;;;;;;;2.08;1.98;;;18.00;99.90;;;;;;4939743;29;20220;-72
2023/09/05 05:59:18;;;;;;;1.80;1.70;;;;;;;;;;4939623;29;20208;-72
2023/09/05 06:01:45;;;;;;;2.03;1.92;;;;;;;;;;4940034;29;20204;-72
2023/09/05 06:04:15;;;;;;;2.00;1.85;;;;;;;;;;4940090;29;20212;-72
2023/09/05 06:06:42;;;;;;;1.85;1.70;;;23.70;99.90;;;;;;4939337;29;20228;-72
2023/09/05 06:09:11;;;;;;;1.40;1.40;;;24.90;91.60;;;;;;4939616;29;20204;-72
2023/09/05 06:11:37;;;;;;;1.70;1.60;;;25.70;79.90;;;;;;4938982;29;20200;-72
2023/09/05 06:14:04;;;;;;;1.65;1.55;;;26.50;75.40;;;;;;4939658;29;20574;-72
2023/09/05 06:16:31;;;;;;;1.70;1.60;;;27.10;65.80;;;;;;4939485;29;20224;-72
2023/09/05 06:18:57;;;;;;;1.80;1.70;;;28.10;58.80;;;;;;4938967;29;20220;-73
2023/09/05 06:21:24;;;;;;;1.73;1.63;;;28.90;53.60;;;;;;4939379;29;20200;-71
2023/09/05 06:23:51;;;;;;;1.85;1.60;;;29.90;54.20;;;;;;4939346;29;20204;-71
2023/09/05 06:26:19;;;;;;;1.55;1.40;;;31.10;52.40;;;;;;4939459;29;20228;-71
2023/09/05 06:28:47;;;;;;;1.85;1.75;;;32.00;50.20;;;;;;4939913;29;20208;-72
2023/09/05 06:31:14;;;;;;;1.75;1.65;;;;;;;;;;4939085;29;20215;-73
2023/09/05 06:33:41;;;;;;;1.40;1.40;;;33.50;62.40;;;;;;4939827;29;20207;-73
2023/09/05 06:36:08;;;;;;;1.30;1.30;;;;;;;;;;4939403;29;20669;-73
2023/09/05 06:38:36;;;;;;;1.45;1.40;;;;;;;;;;4939792;29;20211;-74
2023/09/05 06:41:07;;;;;;;1.42;1.42;;;;;;;;;;4939804;29;20222;-73
2023/09/05 06:43:35;;;;;;;1.35;1.35;;;;;;;;;;4939533;29;20583;-72
2023/09/05 06:46:03;;;;;;;1.60;1.52;;;36.20;46.60;;;;;;4939725;29;20588;-71
2023/09/05 06:48:30;;;;;;;1.48;1.38;;;;;;;;;;4939315;29;20284;-72
2023/09/05 06:50:57;;;;;;;1.38;1.27;;;37.70;46.30;;;;;;4939179;29;20204;-73
2023/09/05 06:53:24;;;;;;;1.63;1.52;;;38.20;43.90;;;;;;4939452;29;20215;-72
2023/09/05 06:55:51;;;;;;;1.40;1.30;;;38.30;39.90;;;;;;4940197;29;20220;-72
2023/09/05 06:58:18;;;;;;;1.65;1.55;;;37.90;36.60;;;;;;4939315;29;20260;-72
2023/09/05 07:00:49;;;;;;;1.02;1.02;;;37.50;35.50;;;;;;4939821;29;20204;-71
2023/09/05 07:03:16;;;;;;;1.25;1.25;;;37.40;35.60;;;;;;4940701;29;20189;-71
2023/09/05 07:05:43;;;;;;;1.52;1.50;;;37.10;35.90;;;;;;4941150;29;20232;-71
2023/09/05 07:08:09;;;;;;;4.15;1.58;;;37.10;36.60;;;;;;4941084;29;20212;-72
2023/09/05 07:10:37;;;;;;;1.55;1.45;;;37.40;35.80;;;;;;4939530;29;20212;-72
2023/09/05 07:13:04;;;;;;;2.92;2.00;;;37.30;35.70;;;;;;4939607;29;20211;-72
2023/09/05 07:15:31;;;;;;;1.23;1.23;;;37.50;33.10;;;;;;4938828;29;20220;-73
2023/09/05 07:17:59;;;;;;;1.30;1.30;;;37.70;30.10;;;;;;4938072;29;20212;-72
2023/09/05 07:20:25;;;;;;;1.65;1.33;;;38.20;29.40;;;;;;4939316;29;20200;-72
2023/09/05 07:22:52;;;;;;;1.20;1.20;;;38.20;28.90;;;;;;4937829;29;20698;-72
2023/09/05 07:25:19;;;;;;;2.20;1.27;;;37.90;29.30;;;;;;4937492;29;20227;-72
2023/09/05 07:27:46;;;;;;;1.52;1.42;;;37.90;29.30;;;;;;4937979;29;20215;-72
2023/09/05 07:30:13;;;;;;;1.50;1.40;;;37.60;29.30;;;;;;4937205;29;20683;-72
2023/09/05 07:32:40;;;;;;;1.40;1.40;;;37.10;29.70;;;;;;4937531;29;20586;-72
2023/09/05 07:35:09;;;;;;;1.10;1.10;;;36.90;30.80;;;;;;4936990;29;20228;-73
2023/09/05 07:37:36;;;;;;;1.90;1.80;;;37.40;30.70;;;;;;4937388;29;20206;-73
2023/09/05 07:40:05;;;;;;;1.58;1.50;;;37.70;30.10;;;;;;4937268;29;20298;-73
2023/09/05 07:42:32;;;;;;;2.13;1.52;;;37.80;30.90;;;;;;4936978;29;20239;-72
2023/09/05 07:44:59;;;;;;;1.17;1.17;;;37.90;30.50;;;;;;4937342;29;20220;-72
2023/09/05 07:47:26;;;;;;;1.20;1.20;;;38.20;31.90;;;;;;4937064;29;20221;-72
2023/09/05 07:49:53;;;;;;;1.20;1.20;;;38.70;30.30;;;;;;4937181;29;20235;-72
2023/09/05 07:52:21;;;;;;;1.30;1.25;;;38.70;36.20;;;;;;4937171;29;20575;-71
2023/09/05 07:54:47;;;;;;;1.10;1.10;;;39.10;35.50;;;;;;4936827;29;20711;-72
2023/09/05 07:57:17;;;;;;;1.10;1.10;;;39.50;34.70;;;;;;4937093;29;20204;-71
2023/09/05 07:59:44;;;;;;;1.10;1.10;;;;;;;;;;4937083;29;20208;-71
2023/09/05 08:02:11;;;;;;;1.98;1.40;;;;;;;;;;4936145;29;20200;-72
2023/09/05 08:04:39;;;;;;;1.23;1.23;;;;;;;;;;4936923;29;20556;-72
2023/09/05 08:07:07;;;;;;;1.65;1.55;;;;;;;;;;4936846;29;20263;-71
2023/09/05 08:09:36;;;;;;;1.45;1.35;;;;;;;;;;4936555;29;20250;-71
2023/09/05 08:12:03;;;;;;;1.35;1.35;;;;;;;;;;4936900;29;20340;-71
2023/09/05 08:14:31;;;;;;;0.98;0.98;;;;;;;;;;4937203;29;20200;-71
2023/09/05 08:16:58;;;;;;;1.58;1.20;;;;;;;;;;4937004;29;20243;-72
2023/09/05 08:19:25;;;;;;;1.65;1.33;;;;;;;;;;4936395;29;20223;-74
2023/09/05 08:21:52;;;;;;;1.50;1.50;;;;;;;;;;4936769;29;20208;-74
2023/09/05 08:24:20;;;;;;;1.92;1.13;;;;;;;;;;4936548;29;20196;-75
2023/09/05 08:26:48;;;;;;;1.30;1.30;;;;;;;;;;4936484;29;20314;-75
2023/09/05 08:29:15;;;;;;;1.60;1.50;;;;;;;;;;4936379;29;20234;-74
2023/09/05 08:31:44;;;;;;;1.30;1.30;;;;;;;;;;4936341;29;20684;-74
2023/09/05 08:34:11;;;;;;;1.98;1.60;;;;;;;;;;4936075;29;20668;-74
2023/09/05 08:36:38;;;;;;;2.00;1.83;;;;;;;;;;4936257;29;20220;-74
2023/09/05 08:39:05;;;;;;;1.77;1.67;;;;;;;;;;4936490;29;20211;-74
2023/09/05 08:41:33;;;;;;;1.40;1.40;;;;;;;;;;4936443;29;20227;-74
2023/09/05 08:44:02;;;;;;;2.42;2.22;;;;;;;;;;4936859;29;20208;-75
2023/09/05 08:46:30;;;;;;;1.58;1.48;;;;;;;;;;4936637;29;20224;-76
2023/09/05 08:48:57;;;;;;;1.70;1.60;;;;;;;;;;4937338;29;20204;-76
2023/09/05 08:51:28;;;;;;;2.00;1.90;;;;;;;;;;4936747;29;20195;-75
2023/09/05 08:54:04;;;;;;;2.22;2.13;;;;;;;;;;4936210;29;20181;-73
2023/09/05 08:56:32;;;;;;;2.85;2.08;;;;;;;;;;4936083;29;20619;-73
2023/09/05 08:59:02;;;;;;;1.90;1.70;;;;;;;;;;4936122;29;20230;-72
2023/09/05 09:01:33;;;;;;;2.20;2.10;;;;;;;;;;4935191;29;20204;-71
2023/09/05 09:04:02;;;;;;;3.60;3.35;;;;;;;;;;4936356;29;20281;-71
2023/09/05 09:06:30;;;;;;;2.75;2.63;;;;;;;;;;4935874;29;20621;-71
2023/09/05 09:08:58;;;;;;;2.60;2.20;;;;;;;;;;4936127;29;20195;-71
2023/09/05 09:11:26;;;;;;;1.90;1.80;;;;;;;;;;4935761;29;20210;-72
2023/09/05 09:13:59;;;;;;;2.10;1.77;;;;;;;;;;4939415;29;20204;-72
2023/09/05 09:16:27;;;;;;;3.05;1.65;;;;;;;;;;4939877;29;20227;-72
2023/09/05 09:19:03;;;;;;;1.88;1.77;;;;;;;;;;4940608;29;20312;-71
2023/09/05 09:21:37;;;;;;;1.30;1.30;;;;;;;;;;4940627;29;20192;-71
2023/09/05 09:24:28;;;;;;;;;;;;;;;;;;;;;
2023/09/05 09:26:56;;;;;;;1.98;1.85;;;;;;;;;;4938271;29;20586;-71
2023/09/05 09:29:23;;;;;;;2.15;2.05;;;;;;;;;;4939871;29;20199;-71
2023/09/05 09:31:50;;;;;;;2.50;2.30;;;;;;;;;;4940235;29;20188;-72
2023/09/05 09:34:21;;;;;;;2.15;2.00;;;;;;;;;;4939886;29;20204;-71
2023/09/05 09:36:51;;;;;;;1.83;1.75;;;;;;;;;;4939694;29;20224;-72
2023/09/05 09:39:19;;;;;;;2.10;2.00;;;;;;;;;;4939680;29;20188;-72
2023/09/05 09:41:47;;;;;;;2.03;1.92;;;;;;;;;;4939687;29;20256;-72
2023/09/05 09:44:26;;;;;;;1.60;1.60;;;;;;;;;;4939738;29;20581;-72
2023/09/05 09:46:53;;;;;;;1.88;1.77;;;;;;;;;;4939423;29;20655;-72
2023/09/05 09:49:24;;;;;;;4.85;2.20;;;;;;;;;;4939661;29;20211;-71
2023/09/05 09:51:54;;;;;;;1.90;1.80;;;;;;;;;;4939648;29;20189;-71
2023/09/05 09:54:23;;;;;;;1.83;1.73;;;;;;;;;;4939796;29;20248;-72
2023/09/05 09:56:50;;;;;;;1.83;1.73;;;;;;;;;;4939622;29;20224;-72
2023/09/05 09:59:20;;;;;;;2.67;1.90;;;;;;;;;;4940186;29;20212;-71
2023/09/05 10:01:47;;;;;;;1.73;1.55;;;;;;;;;;4939208;29;20207;-72
2023/09/05 10:04:15;;;;;;;1.65;1.40;;;;;;;;;;4939592;29;20212;-72
2023/09/05 10:06:45;;;;;;;1.80;1.70;;;;;;;;;;4938995;29;20225;-72
2023/09/05 10:09:13;;;;;;;2.10;2.00;;;;;;;;;;4939211;29;20637;-72
2023/09/05 10:11:41;;;;;;;2.13;2.03;;;;;;;;;;4939145;29;20204;-72
2023/09/05 10:14:08;;;;;;;1.98;1.88;;;;;;;;;;4938874;29;20211;-72
2023/09/05 10:16:37;;;;;;;1.95;1.77;;;;;;;;;;4939028;29;20228;-72
2023/09/05 10:19:05;;;;;;;1.65;1.58;;;;;;;;;;4939080;29;20223;-72
2023/09/05 10:21:32;;;;;;;1.70;1.60;;;;;;;;;;4939187;29;20215;-71
2023/09/05 10:24:01;;;;;;;1.80;1.70;;;;;;;;;;4938400;29;20201;-71
2023/09/05 10:26:30;;;;;;;1.63;1.63;;;;;;;;;;4939110;29;20314;-71
2023/09/05 10:28:58;;;;;;;1.98;1.70;;;;;;;;;;4939378;29;20224;-71
2023/09/05 10:31:26;;;;;;;1.65;1.60;;;;;;;;;;4939136;29;20290;-71
2023/09/05 10:33:53;;;;;;;1.73;1.48;;;;;;;;;;4938363;29;20200;-71
2023/09/05 10:36:39;;;;;;;1.83;1.77;;;;;;;;;;4939694;29;20231;-70
2023/09/05 10:39:22;;;;;;;1.60;1.50;;;;;;;;;;4939254;29;20204;-71
2023/09/05 10:41:49;;;;;;;3.30;1.58;;;;;;;;;;4938424;29;20288;-72
2023/09/05 10:44:17;;;;;;;1.40;1.40;;;;;;;;;;4938530;29;20208;-71
2023/09/05 10:46:44;;;;;;;2.08;1.98;;;;;;;;;;4938125;29;20231;-72
2023/09/05 10:49:12;;;;;;;1.73;1.73;;;;;;;;;;4938897;29;20204;-72
2023/09/05 10:51:54;;;;;;;1.70;1.60;;;;;;;;;;4938822;29;20232;-72
2023/09/05 10:54:29;;;;;;;1.70;1.50;;;;;;;;;;4938614;29;20204;-71
2023/09/05 10:56:57;;;;;;;1.67;1.58;;;;;;;;;;4938169;29;20314;-71
2023/09/05 10:59:27;;;;;;;1.73;1.40;;;;;;;;;;4938465;29;20207;-73
2023/09/05 11:02:01;;;;;;;1.15;1.15;;;;;;;;;;4937802;29;20200;-72
2023/09/05 11:04:31;;;;;;;2.25;1.30;;;;;;;;;;4937754;29;20188;-73
2023/09/05 11:07:00;;;;;;;1.20;1.20;;;;;;;;;;4938050;29;20230;-72
2023/09/05 11:09:29;;;;;;;1.30;1.30;;;;;;;;;;4937569;29;20255;-72
2023/09/05 11:11:56;;;;;;;1.30;1.20;;;;;;;;;;4937872;29;20644;-72
2023/09/05 11:14:30;;;;;;;1.27;1.27;;;;;;;;;;4938368;29;20208;-72
2023/09/05 11:16:57;;;;;;;1.02;0.98;;;;;;;;;;4937638;29;20708;-73
2023/09/05 11:19:35;;;;;;;2.00;1.27;;;;;;;;;;4937937;29;20224;-73
2023/09/05 11:22:07;;;;;;;1.23;1.17;;;;;;;;;;4937962;29;20641;-72
2023/09/05 11:24:35;;;;;;;1.05;1.05;;;;;;;;;;4938065;29;20272;-73
2023/09/05 11:27:03;;;;;;;1.10;1.10;;;;;;;;;;4938070;29;20228;-74
2023/09/05 11:29:30;;;;;;;1.90;1.20;;;;;;;;;;4938233;29;20200;-73
2023/09/05 11:31:59;;;;;;;1.00;1.00;;;;;;;;;;4938229;29;20204;-73
2023/09/05 11:34:27;;;;;;;3.13;1.10;;;;;;;;;;4937867;29;20200;-72
2023/09/05 11:36:54;;;;;;;1.42;1.42;;;;;;;;;;4976766;23;20594;-72
2023/09/05 11:39:27;;;;;;;1.33;1.20;;;;;;;;;;4957115;29;20219;-73
2023/09/05 11:41:58;;;;;;;1.35;1.35;;;;;;;;;;4957479;29;20287;-74
2023/09/05 11:44:33;;;;;;;1.23;1.23;;;;;;;;;;4958119;29;20188;-74
2023/09/05 11:47:01;;;;;;;1.92;1.10;;;;;;;;;;4958338;29;20271;-74
2023/09/05 11:49:30;;;;;;;1.10;1.00;;;;;;;;;;4958738;28;20212;-73
2023/09/05 11:51:58;;;;;;;1.10;1.10;;;;;;;;;;4958613;29;20208;-73
2023/09/05 11:54:25;;;;;;;1.27;1.20;;;;;;;;;;4959344;29;20199;-73
2023/09/05 11:56:53;;;;;;;0.93;0.93;;;;;;;;;;4958902;29;20223;-74
2023/09/05 11:59:21;;;;;;;0.90;0.90;;;;;;;;;;4958285;29;20611;-73
2023/09/05 12:01:49;;;;;;;1.38;1.38;;;;;;;;;;4958775;29;20235;-73
2023/09/05 12:04:16;;;;;;;1.15;1.00;;;;;;;;;;4957953;29;20212;-74
2023/09/05 12:06:48;;;;;;;1.08;1.08;;;;;;;;;;4957314;29;20219;-73
2023/09/05 12:09:15;;;;;;;1.38;1.38;;;;;;;;;;4956232;29;20222;-73
2023/09/05 12:11:42;;;;;;;1.13;1.13;;;;;;;;;;4956022;29;20253;-73
2023/09/05 12:14:10;;;;;;;0.90;0.90;;;;;;;;;;4956137;29;20210;-73
2023/09/05 12:16:39;;;;;;;1.63;1.00;;;;;;;;;;4955637;29;20583;-73
2023/09/05 12:19:08;;;;;;;1.10;1.10;;;;;;;;;;4956034;28;20687;-72
2023/09/05 12:21:42;;;;;;;1.27;1.20;;;;;;;;;;4956157;29;20191;-71
2023/09/05 12:24:19;;;;;;;0.85;0.85;;;;;;;;;;4955966;29;20230;-71
2023/09/05 12:26:46;;;;;;;1.13;1.13;;;;;;;;;;4955729;29;20230;-71
2023/09/05 12:29:15;;;;;;;0.93;0.93;;;;;;;;;;4955710;29;20231;-71
2023/09/05 12:31:44;;;;;;;0.80;0.80;;;;;;;;;;4955747;29;20208;-71
2023/09/05 12:34:12;;;;;;;0.90;0.90;;;;;;;;;;4956536;28;20200;-71
2023/09/05 12:36:39;;;;;;;1.20;1.20;;;;;;;;;;4955580;28;20231;-72
2023/09/05 12:39:06;;;;;;;1.90;1.20;;;;;;;;;;4955622;29;20207;-72
2023/09/05 12:41:34;;;;;;;1.15;1.10;;;;;;;;;;4955708;28;20203;-73
2023/09/05 12:44:01;;;;;;;1.10;1.10;;;;;;;;;;4955935;29;20206;-73
2023/09/05 12:46:29;;;;;;;1.02;1.02;;;;;;;;;;4955493;28;20223;-74
2023/09/05 12:48:57;;;;;;;1.17;1.10;;;;;;;;;;4955429;29;20223;-74
2023/09/05 12:51:24;;;;;;;0.80;0.80;;;;;;;;;;4955518;29;20689;-75
2023/09/05 12:53:52;;;;;;;1.40;1.30;;;;;;;;;;4955936;29;20255;-75
2023/09/05 12:56:19;;;;;;;1.75;1.08;;;;;;;;;;4955149;28;20679;-75
2023/09/05 12:58:47;;;;;;;1.52;1.00;;;;;;;;;;4955232;29;20184;-74
2023/09/05 13:01:14;;;;;;;1.75;1.00;;;;;;;;;;4955479;29;20200;-74
2023/09/05 13:03:42;;;;;;;3.83;1.13;;;;;;;;;;4955404;29;20199;-74
2023/09/05 13:06:10;;;;;;;1.13;0.98;;;;;;;;;;4955719;28;20223;-73
2023/09/05 13:08:37;;;;;;;1.00;1.00;;;;;;;;;;4956069;29;20242;-75
2023/09/05 13:11:04;;;;;;;1.27;0.80;;;;;;;;;;4955447;29;20537;-73
2023/09/05 13:13:32;;;;;;;1.00;1.00;;;;;;;;;;4954932;29;20548;-73
2023/09/05 13:15:59;;;;;;;1.20;1.20;;;;;;;;;;4954855;29;20257;-73
2023/09/05 13:18:26;;;;;;;1.08;1.08;;;;;;;;;;4955208;29;20211;-73
2023/09/05 13:20:53;;;;;;;1.38;1.17;;;;;;;;;;4955175;29;20203;-73
2023/09/05 13:23:21;;;;;;;0.98;0.98;;;;;;;;;;4955203;29;20207;-73
2023/09/05 13:25:48;;;;;;;1.10;1.10;;;;;;;;;;4955156;29;20235;-72
2023/09/05 13:28:16;;;;;;;0.95;0.95;;;;;;;;;;4954997;29;20589;-73
2023/09/05 13:30:43;;;;;;;1.10;1.10;;;;;;;;;;4955388;29;20210;-74
2023/09/05 13:33:10;;;;;;;1.15;1.10;;;;;;;;;;4955232;29;20556;-74
2023/09/05 13:35:38;;;;;;;1.40;1.30;;;;;;;;;;4955358;29;20235;-73
2023/09/05 13:38:05;;;;;;;0.95;0.95;;;;;;;;;;4955115;29;20663;-74
2023/09/05 13:40:33;;;;;;;1.10;1.10;;;;;;;;;;4955248;29;20735;-74
2023/09/05 13:43:01;;;;;;;1.00;1.00;;;;;;;;;;4955514;29;20570;-74
2023/09/05 13:45:28;;;;;;;1.20;1.20;;;;;;;;;;4955252;29;20631;-75
2023/09/05 13:47:56;;;;;;;1.10;1.10;;;;;;;;;;4955085;29;20671;-73
2023/09/05 13:50:23;;;;;;;1.35;1.17;;;;;;;;;;4955295;29;20242;-74
2023/09/05 13:52:50;;;;;;;0.95;0.95;;;;;;;;;;4955304;29;20208;-74
2023/09/05 13:55:18;;;;;;;1.10;1.10;;;;;;;;;;4955088;29;20238;-73
2023/09/05 13:57:48;;;;;;;1.17;1.17;;;;;;;;;;4955986;29;20203;-74
2023/09/05 14:00:18;;;;;;;1.17;1.08;;;;;;;;;;4960797;28;20213;-73
2023/09/05 14:02:45;;;;;;;3.25;1.42;;;;;;;;;;4958696;29;20648;-74
2023/09/05 14:05:12;;;;;;;1.00;1.00;;;;;;;;;;4958928;29;20200;-72
2023/09/05 14:07:40;;;;;;;1.40;1.20;;;;;;;;;;4959221;29;20207;-74
2023/09/05 14:10:08;;;;;;;1.00;1.00;;;;;;;;;;4958586;29;20726;-73
2023/09/05 14:12:35;;;;;;;1.10;1.10;;;;;;;;;;4960002;29;20199;-73
2023/09/05 14:15:03;;;;;;;1.00;1.00;;;;;;;;;;4961096;29;20219;-73
2023/09/05 14:17:31;;;;;;;0.93;0.93;;;;;;;;;;4962442;29;20203;-73
2023/09/05 14:19:59;;;;;;;1.10;1.10;;;;;;;;;;4965052;29;20203;-73
2023/09/05 14:22:26;;;;;;;1.13;1.02;;;;;;;;;;4966461;29;20219;-75
2023/09/05 14:24:53;;;;;;;1.35;1.10;;;;;;;;;;4959538;29;20207;-76
2023/09/05 14:27:20;;;;;;;1.05;1.00;;;;;;;;;;4958049;29;20199;-75
2023/09/05 14:29:48;;;;;;;1.00;1.00;;;;;;;;;;4958240;28;20224;-75
2023/09/05 14:32:17;;;;;;;1.02;1.02;;;;;;;;;;4958031;28;20207;-75
2023/09/05 14:34:44;;;;;;;1.20;1.20;;;;;;;;;;4957805;29;20219;-74
2023/09/05 14:37:11;;;;;;;1.00;1.00;;;;;;;;;;4957249;29;20738;-74
2023/09/05 14:39:38;;;;;;;0.90;0.90;;;;;;;;;;4957632;29;20200;-74
2023/09/05 14:42:05;;;;;;;7.32;6.50;;;;;;;;;;4957731;29;20199;-74
2023/09/05 14:44:33;;;;;;;1.45;1.13;;;;;;;;;;4957551;29;20207;-74
2023/09/05 14:47:00;;;;;;;1.20;1.10;;;;;;;;;;4957175;29;20643;-74
2023/09/05 14:49:28;;;;;;;1.60;1.50;;;;;;;;;;4957177;29;20223;-74
2023/09/05 14:51:55;;;;;;;1.20;1.20;;;;;;;;;;4957402;29;20212;-74
2023/09/05 14:54:22;;;;;;;0.95;0.95;;;;;;;;;;4957379;29;20230;-74
2023/09/05 14:56:50;;;;;;;1.20;1.10;;;;;;;;;;4957521;29;20223;-74
2023/09/05 14:59:17;;;;;;;1.40;1.40;;;;;;;;;;4957294;28;20207;-74
2023/09/05 15:01:44;;;;;;;1.30;1.20;;;;;;;;;;4957648;29;20203;-74
2023/09/05 15:04:13;;;;;;;1.17;1.17;;;;;;;;;;4957213;29;20296;-74
2023/09/05 15:06:41;;;;;;;1.75;1.30;;;;;;;;;;4957151;28;20227;-74
2023/09/05 15:09:08;;;;;;;1.33;1.23;;;;;;;;;;4956954;29;20230;-74
2023/09/05 15:11:35;;;;;;;1.20;1.20;;;;;;;;;;4956590;28;20208;-73
2023/09/05 15:14:02;;;;;;;3.90;1.55;;;;;;;;;;4958129;29;20199;-75
2023/09/05 15:16:29;;;;;;;1.20;1.20;;;;;;;;;;4957782;29;20219;-75
2023/09/05 15:18:56;;;;;;;1.17;1.17;;;;;;;;;;4956916;29;20210;-75
2023/09/05 15:21:23;;;;;;;2.15;1.20;;;;;;;;;;4957612;29;20208;-76
2023/09/05 15:23:52;;;;;;;1.20;1.20;;;;;;;;;;4957952;29;20200;-75
2023/09/05 15:26:19;;;;;;;1.40;1.30;;;;;;;;;;4958098;29;20219;-76
2023/09/05 15:28:46;;;;;;;2.30;1.25;;;;;;;;;;4957986;29;20223;-76
2023/09/05 15:31:13;;;;;;;2.30;1.08;;;;;;;;;;4958099;29;20571;-76
2023/09/05 15:33:41;;;;;;;1.25;1.25;;;;;;;;;;4958361;29;20217;-76
2023/09/05 15:36:08;;;;;;;1.42;1.17;;;;;;;;;;4957603;29;20322;-77
2023/09/05 15:38:36;;;;;;;1.58;0.95;;;;;;;;;;4957801;29;20212;-77
2023/09/05 15:41:05;;;;;;;1.17;1.17;;;;;;;;;;4957537;29;20207;-76
2023/09/05 15:43:32;;;;;;;0.90;0.90;;;;;;;;;;4957220;29;20207;-76
2023/09/05 15:45:59;;;;;;;1.30;1.20;;;;;;;;;;4957214;29;20227;-76
2023/09/05 15:48:26;;;;;;;0.95;0.95;;;;;;;;;;4957369;29;20294;-76
2023/09/05 15:50:56;;;;;;;0.90;0.90;;;;;;;;;;4957379;29;20239;-77
2023/09/05 15:53:24;;;;;;;3.33;1.02;;;;;;;;;;4958126;29;20615;-78
2023/09/05 15:55:51;;;;;;;1.00;1.00;;;;;;;;;;4958686;29;20256;-76
2023/09/05 15:58:20;;;;;;;0.93;0.93;;;;;;;;;;4958109;29;20242;-76
2023/09/05 16:00:48;;;;;;;1.17;0.95;;;;;;;;;;4958742;29;20207;-76
2023/09/05 16:03:15;;;;;;;1.23;1.13;;;;;;;;;;4958048;29;20203;-76
2023/09/05 16:05:44;;;;;;;0.88;0.88;;;;;;;;;;4958169;29;20267;-76
2023/09/05 16:08:11;;;;;;;0.65;0.65;;;;;;;;;;4958067;29;20211;-76
2023/09/05 16:10:39;;;;;;;3.22;0.90;;;;;;;;;;4958024;29;20230;-76
2023/09/05 16:13:07;;;;;;;1.58;1.33;;;;;;;;;;4957844;28;20212;-76
2023/09/05 16:15:36;;;;;;;4.43;1.30;;;;;;;;;;4957824;29;20223;-76
2023/09/05 16:18:03;;;;;;;1.90;1.80;;;;;;;;;;4958274;29;20199;-77
2023/09/05 16:20:30;;;;;;;1.52;1.40;;;;;;;;;;4957969;29;20206;-76
2023/09/05 16:22:58;;;;;;;1.50;1.40;;;;;;;;;;4956700;28;20203;-76
2023/09/05 16:25:25;;;;;;;1.17;1.17;;;;;;;;;;4957441;29;20766;-76
2023/09/05 16:27:53;;;;;;;1.13;1.13;;;;;;;;;;4957457;29;20625;-76
2023/09/05 16:30:20;;;;;;;1.90;1.38;;;;;;;;;;4957333;29;20238;-76
2023/09/05 16:32:49;;;;;;;1.50;1.40;;;;;;;;;;4958098;29;20211;-76
2023/09/05 16:35:17;;;;;;;1.63;1.40;;;;;;;;;;4957422;29;20326;-74
2023/09/05 16:37:44;;;;;;;3.03;1.55;;;;;;;;;;4956950;29;20192;-71
2023/09/05 16:40:15;;;;;;;1.35;1.25;;;;;;;;;;4956528;29;20266;-74
2023/09/05 16:42:43;;;;;;;2.85;1.80;;;;;;;;;;4956816;29;20529;-74
2023/09/05 16:45:10;;;;;;;2.78;1.25;;;;;;;;;;4957225;29;20207;-73
2023/09/05 16:47:38;;;;;;;2.53;1.30;;;;;;;;;;4957908;29;20203;-73
2023/09/05 16:50:07;;;;;;;1.30;1.20;;;;;;;;;;4956652;29;20247;-72
2023/09/05 16:52:35;;;;;;;1.60;1.42;;;;;;;;;;4956178;28;20192;-73
2023/09/05 16:55:02;;;;;;;1.50;1.40;;;;;;;;;;4955322;29;20750;-73
2023/09/05 16:57:29;;;;;;;1.60;1.10;;;;;;;;;;4956212;29;20204;-74
2023/09/05 16:59:56;;;;;;;1.60;1.02;;;;;;;;;;4955920;29;20199;-74
2023/09/05 17:02:23;;;;;;;1.00;1.00;;;;;;;;;;4955614;29;20203;-74
2023/09/05 17:04:50;;;;;;;1.13;1.10;;;;;;;;;;4955238;29;20659;-74
2023/09/05 17:07:21;;;;;;;1.55;1.45;;;;;;;;;;4955278;29;20715;-73
2023/09/05 17:09:48;;;;;;;2.08;1.20;;;;;;;;;;4956003;29;20253;-72
2023/09/05 17:12:15;;;;;;;1.17;1.17;;;;;;;;;;4956063;28;20207;-73
2023/09/05 17:14:42;;;;;;;2.15;1.25;;;;;;;;;;4955764;29;20211;-73
2023/09/05 17:17:09;;;;;;;1.45;1.20;;;;;;;;;;4955815;29;20234;-74
2023/09/05 17:19:36;;;;;;;0.98;0.98;;;;;;;;;;4955459;29;20200;-73
2023/09/05 17:22:03;;;;;;;2.22;1.20;;;;;;;;;;4955047;29;20208;-73
2023/09/05 17:24:32;;;;;;;2.78;1.38;;;;;;;;;;4955609;29;20211;-75
2023/09/05 17:26:59;;;;;;;1.10;1.00;;;;;;;;;;4955789;29;20230;-75
2023/09/05 17:29:26;;;;;;;1.30;1.20;;;;;;;;;;4955549;29;20223;-72
2023/09/05 17:31:54;;;;;;;1.30;1.30;;;;;;;;;;4955257;29;20593;-73
2023/09/05 17:34:21;;;;;;;1.30;1.30;;;;;;;;;;4957572;28;20254;-74
2023/09/05 17:36:48;;;;;;;1.42;1.33;;;;;;;;;;4958280;29;20235;-75
2023/09/05 17:39:15;;;;;;;1.60;1.50;;;;;;;;;;4958814;29;20200;-75
2023/09/05 17:41:43;;;;;;;1.50;1.40;;;;;;;;;;4958714;29;20208;-75
2023/09/05 17:44:10;;;;;;;1.30;1.30;;;;;;;;;;4959159;29;20207;-75
2023/09/05 17:46:37;;;;;;;1.40;1.40;;;;;;;;;;4958971;29;20732;-74
2023/09/05 17:49:04;;;;;;;1.92;1.83;;;;;;;;;;4958834;29;20199;-75
2023/09/05 17:51:31;;;;;;;1.70;1.60;;;;;;;;;;4958724;29;20208;-74
2023/09/05 17:53:59;;;;;;;1.63;1.52;;;;;;;;;;4958523;29;20204;-75
2023/09/05 17:56:26;;;;;;;3.30;1.67;;;;;;;;;;4958552;29;20230;-75
2023/09/05 17:58:54;;;;;;;2.08;1.20;;;;;;;;;;4958668;29;20210;-72
2023/09/05 18:01:21;;;;;;;1.25;1.15;;;;;;;;;;4958044;29;20664;-70
2023/09/05 18:03:48;;;;;;;1.20;1.20;;;;;;;;;;4958000;29;20665;-70
2023/09/05 18:06:16;;;;;;;1.58;1.20;;;;;;;;;;4958306;29;20230;-70
2023/09/05 18:08:43;;;;;;;1.85;1.40;;;;;;;;;;4958240;29;20204;-72
2023/09/05 18:11:10;;;;;;;1.60;1.50;;;;;;;;;;4958063;29;20208;-70
2023/09/05 18:13:37;;;;;;;1.60;1.50;;;;;;;;;;4958070;29;20208;-71
2023/09/05 18:16:06;;;;;;;2.78;1.85;;;;;;;;;;4958266;29;20227;-72
2023/09/05 18:18:34;;;;;;;2.00;1.90;;;;;;;;;;4958058;29;20214;-71
2023/09/05 18:21:02;;;;;;;1.90;1.80;;;;;;;;;;4958286;29;20210;-72
2023/09/05 18:23:30;;;;;;;2.17;2.08;;;;;;;;;;4958249;28;20262;-71
2023/09/05 18:26:03;;;;;;;1.83;1.73;;;;;;;;;;4958077;28;20299;-72
2023/09/05 18:28:30;;;;;;;1.88;1.77;;;;;;;;;;4959101;28;20187;-73
2023/09/05 18:31:03;;;;;;;1.85;1.75;;;;;;;;;;4957758;29;20579;-73
2023/09/05 18:33:32;;;;;;;2.13;1.88;;;;;;;;;;4958034;29;20671;-73
2023/09/05 18:35:59;;;;;;;3.25;1.80;;;;;;;;;;4957639;29;20246;-73
2023/09/05 18:38:26;;;;;;;1.52;1.42;;;;;;;;;;4958215;29;20203;-73
2023/09/05 18:40:54;;;;;;;2.60;1.38;;;;;;;;;;4958066;29;20204;-72
2023/09/05 18:43:21;;;;;;;3.05;1.60;;;;;;;;;;4957820;28;20675;-73
2023/09/05 18:45:49;;;;;;;1.70;1.60;;;;;;;;;;4956940;28;20230;-72
2023/09/05 18:48:16;;;;;;;1.50;1.50;;;;;;;;;;4957615;29;20787;-72
2023/09/05 18:50:44;;;;;;;1.40;1.30;;;;;;;;;;4957814;29;20714;-73
2023/09/05 18:53:11;;;;;;;1.40;1.30;;;;;;;;;;4957896;29;20671;-73
2023/09/05 18:55:39;;;;;;;1.65;1.58;;;;;;;;;;4958063;29;20232;-73
2023/09/05 18:58:06;;;;;;;1.50;1.50;;;;;;;;;;4958408;29;20208;-73
2023/09/05 19:00:33;;;;;;;1.80;1.80;;;;;;;;;;4959108;29;20200;-73
2023/09/05 19:03:01;;;;;;;2.17;2.08;;;;;;;;;;4957611;29;20203;-73
2023/09/05 19:05:29;;;;;;;2.00;1.90;;;;;;;;;;4957744;29;20267;-74
2023/09/05 19:07:58;;;;;;;1.73;1.73;;;;;;;;;;4957938;29;20203;-73
2023/09/05 19:10:25;;;;;;;2.45;2.35;;;;;;;;;;4957681;28;20622;-73
2023/09/05 19:12:53;;;;;;;2.10;2.00;;;;;;;;;;4957513;28;20259;-72
2023/09/05 19:15:20;;;;;;;2.42;2.13;;;;;;;;;;4957407;29;20224;-73
2023/09/05 19:17:47;;;;;;;1.60;1.52;;;;;;;;;;4957646;29;20212;-72
2023/09/05 19:20:14;;;;;;;1.77;1.70;;;;;;;;;;4957848;29;20199;-74
2023/09/05 19:22:41;;;;;;;2.00;1.83;;;;;;;;;;4957221;29;20204;-73
2023/09/05 19:25:10;;;;;;;1.65;1.65;;;;;;;;;;4957532;29;20211;-75
2023/09/05 19:27:39;;;;;;;2.03;1.92;;;;;;;;;;4957006;29;20207;-74
2023/09/05 19:30:06;;;;;;;2.20;2.00;;;;;;;;;;4957228;28;20219;-74
2023/09/05 19:32:33;;;;;;;1.75;1.70;;;;;;;;;;4956928;29;20200;-75
2023/09/05 19:35:01;;;;;;;1.60;1.60;;;;;;;;;;4957077;29;20214;-72
2023/09/05 19:37:28;;;;;;;2.58;1.65;;;;;;;;;;4957347;29;20635;-74
2023/09/05 19:39:55;;;;;;;1.65;1.63;;;;;;;;;;4956794;29;20199;-73
2023/09/05 19:42:23;;;;;;;1.50;1.50;;;;;;;;;;4957273;29;20212;-74
2023/09/05 19:44:50;;;;;;;1.33;1.33;;;;;;;;;;4956759;29;20579;-73